createdAt,value
2019-04-26T00:02:34.820Z,22.42
2019-04-26T00:05:03.939Z,23.87
2019-04-26T00:07:32.747Z,26.65
2019-04-26T00:10:03.125Z,24.50
2019-04-26T00:12:51.647Z,25.17
2019-04-26T00:15:28.098Z,32.28
2019-04-26T00:17:58.815Z,30.35
2019-04-26T00:20:27.560Z,29.18
2019-04-26T00:22:56.300Z,32.35
2019-04-26T00:25:25.037Z,27.32
2019-04-26T00:27:53.802Z,33.23
2019-04-26T00:30:22.624Z,29.52
2019-04-26T00:32:51.390Z,28.02
2019-04-26T00:35:20.237Z,29.57
2019-04-26T00:37:48.980Z,25.52
2019-04-26T00:40:18.286Z,34.70
2019-04-26T00:42:47.145Z,30.35
2019-04-26T00:45:16.748Z,33.08
2019-04-26T00:47:45.810Z,31.95
2019-04-26T00:50:17.130Z,28.15
2019-04-26T00:52:46.505Z,22.22
2019-04-26T00:57:44.839Z,36.77
2019-04-26T01:00:16.863Z,31.70
2019-04-26T01:02:48.077Z,42.40
2019-04-26T01:05:17.082Z,26.05
2019-04-26T01:07:47.566Z,24.10
2019-04-26T01:10:17.658Z,30.12
2019-04-26T01:12:46.562Z,32.42
2019-04-26T01:15:17.089Z,26.97
2019-04-26T01:17:45.851Z,33.65
2019-04-26T01:20:16.119Z,28.52
2019-04-26T01:22:48.383Z,30.40
2019-04-26T01:25:35.026Z,30.50
2019-04-26T01:28:06.536Z,36.85
2019-04-26T01:30:36.925Z,27.07
2019-04-26T01:33:07.175Z,24.95
2019-04-26T01:35:36.199Z,30.85
2019-04-26T01:38:07.660Z,28.60
2019-04-26T01:40:37.591Z,21.50
2019-04-26T01:43:07.975Z,30.27
2019-04-26T01:45:40.990Z,24.47
2019-04-26T01:48:39.477Z,31.37
2019-04-26T01:51:11.108Z,26.40
2019-04-26T01:53:40.351Z,28.00
2019-04-26T01:56:09.092Z,32.03
2019-04-26T01:58:37.850Z,29.87
2019-04-26T02:01:14.241Z,34.23
2019-04-26T02:03:43.192Z,29.45
2019-04-26T02:06:19.563Z,31.52
2019-04-26T02:08:42.602Z,28.92
2019-04-26T02:11:11.332Z,33.88
2019-04-26T02:13:40.028Z,29.00
2019-04-26T02:16:08.927Z,21.37
2019-04-26T02:18:37.675Z,30.27
2019-04-26T02:21:08.942Z,29.63
2019-04-26T02:23:48.716Z,27.80
2019-04-26T02:26:34.880Z,24.45
2019-04-26T02:29:11.577Z,25.62
2019-04-26T02:31:42.826Z,23.70
2019-04-26T02:34:12.054Z,24.82
2019-04-26T02:36:56.437Z,26.97
2019-04-26T02:39:16.991Z,26.23
2019-04-26T02:41:47.891Z,25.12
2019-04-26T02:44:21.834Z,27.65
2019-04-26T02:46:56.602Z,25.32
2019-04-26T02:49:38.548Z,27.30
2019-04-26T02:52:29.717Z,24.92
2019-04-26T02:55:07.976Z,19.42
2019-04-26T02:57:39.655Z,36.93
2019-04-26T03:00:17.243Z,26.25
2019-04-26T03:02:48.908Z,23.90
2019-04-26T03:05:18.613Z,26.90
2019-04-26T03:07:52.986Z,28.50
2019-04-26T03:10:24.762Z,25.85
2019-04-26T03:12:55.965Z,29.10
2019-04-26T03:15:45.719Z,26.82
2019-04-26T03:18:35.557Z,30.15
2019-04-26T03:21:22.520Z,35.95
2019-04-26T03:24:00.166Z,28.23
2019-04-26T03:26:35.657Z,31.25
2019-04-26T03:29:14.101Z,37.05
2019-04-26T03:31:55.571Z,31.93
2019-04-26T03:34:53.088Z,42.83
2019-04-26T03:37:35.742Z,39.70
2019-04-26T03:40:14.841Z,28.65
2019-04-26T03:43:03.826Z,30.08
2019-04-26T03:45:57.781Z,34.15
2019-04-26T03:48:29.487Z,31.80
2019-04-26T03:51:10.070Z,35.63
2019-04-26T03:53:50.752Z,30.48
2019-04-26T03:56:28.239Z,32.58
2019-04-26T03:59:02.181Z,32.15
2019-04-26T04:01:39.439Z,32.65
2019-04-26T04:04:28.755Z,33.42
2019-04-26T04:07:04.796Z,35.30
2019-04-26T04:09:31.879Z,34.05
2019-04-26T04:12:11.437Z,64.85
2019-04-26T04:15:06.303Z,26.95
2019-04-26T04:17:45.318Z,34.60
2019-04-26T04:20:31.740Z,32.85
2019-04-26T04:23:09.485Z,29.15
2019-04-26T04:25:42.155Z,33.45
2019-04-26T04:28:32.638Z,26.40
2019-04-26T04:31:25.595Z,27.93
2019-04-26T04:34:00.426Z,37.80
2019-04-26T04:36:32.098Z,38.90
2019-04-26T04:39:15.779Z,45.30
2019-04-26T04:42:04.014Z,41.77
2019-04-26T04:44:59.694Z,36.77
2019-04-26T04:47:33.187Z,36.55
2019-04-26T04:50:08.993Z,38.75
2019-04-26T04:52:52.377Z,36.05
2019-04-26T04:55:42.854Z,55.78
2019-04-26T04:58:16.472Z,50.88
2019-04-26T05:01:09.382Z,43.87
2019-04-26T05:03:49.691Z,53.65
2019-04-26T05:06:37.911Z,42.65
2019-04-26T05:09:09.921Z,52.30
2019-04-26T05:11:52.371Z,55.52
2019-04-26T05:14:35.995Z,60.85
2019-04-26T05:17:25.875Z,46.53
2019-04-26T05:19:57.602Z,48.90
2019-04-26T05:22:51.204Z,46.30
2019-04-26T05:25:53.446Z,56.68
2019-04-26T05:28:31.055Z,60.38
2019-04-26T05:31:22.789Z,52.78
2019-04-26T05:34:02.338Z,45.05
2019-04-26T05:44:33.576Z,39.08
2019-04-26T05:47:24.848Z,57.83
2019-04-26T05:50:27.958Z,48.48
2019-04-26T05:53:17.826Z,44.77
2019-04-26T05:56:23.027Z,45.50
2019-04-26T05:59:06.535Z,50.63
2019-04-26T06:01:52.040Z,56.65
2019-04-26T06:04:53.540Z,55.30
2019-04-26T06:07:32.439Z,65.08
2019-04-26T06:10:14.505Z,64.85
2019-04-26T06:13:04.258Z,63.80
2019-04-26T06:15:49.128Z,60.15
2019-04-26T06:18:31.092Z,58.45
2019-04-26T06:21:05.798Z,58.23
2019-04-26T06:23:55.703Z,60.00
2019-04-26T06:27:09.264Z,59.60
2019-04-26T06:29:45.388Z,56.20
2019-04-26T06:32:32.266Z,47.13
2019-04-26T06:35:22.341Z,56.42
2019-04-26T06:38:07.325Z,51.73
2019-04-26T06:40:47.982Z,50.70
2019-04-26T06:43:21.313Z,52.83
2019-04-26T06:46:03.353Z,55.30
2019-04-26T06:48:42.573Z,60.98
2019-04-26T06:51:24.708Z,68.00
2019-04-26T06:54:06.421Z,65.50
2019-04-26T06:56:51.787Z,61.13
2019-04-26T06:59:41.470Z,61.18
2019-04-26T07:02:25.328Z,67.08
2019-04-26T07:05:02.908Z,60.98
2019-04-26T07:07:46.682Z,60.55
2019-04-26T07:10:33.296Z,59.98
2019-04-26T07:13:36.162Z,59.73
2019-04-26T07:16:22.809Z,57.90
2019-04-26T07:18:52.563Z,56.02
2019-04-26T07:21:34.582Z,64.82
2019-04-26T07:24:36.654Z,55.20
2019-04-26T07:27:17.256Z,50.38
2019-04-26T07:29:51.526Z,45.40
2019-04-26T07:32:42.828Z,47.10
2019-04-26T07:35:23.138Z,54.18
2019-04-26T07:38:11.192Z,49.90
2019-04-26T07:40:56.704Z,45.83
2019-04-26T07:43:42.158Z,48.00
2019-04-26T07:46:25.132Z,50.17
2019-04-26T07:49:14.952Z,52.80
2019-04-26T07:52:02.832Z,48.08
2019-04-26T07:54:43.440Z,43.83
2019-04-26T07:57:22.440Z,48.58
2019-04-26T08:00:14.055Z,46.98
2019-04-26T08:02:56.359Z,49.53
2019-04-26T08:05:38.627Z,38.13
2019-04-26T08:08:10.826Z,49.63
2019-04-26T08:10:42.451Z,40.83
2019-04-26T08:13:16.686Z,42.30
2019-04-26T08:16:18.036Z,32.05
2019-04-26T08:18:53.978Z,34.25
2019-04-26T08:21:27.140Z,32.73
2019-04-26T08:24:06.246Z,34.90
2019-04-26T08:26:38.159Z,38.15
2019-04-26T08:29:10.505Z,31.70
2019-04-26T08:31:42.666Z,32.78
2019-04-26T08:34:16.669Z,36.00
2019-04-26T08:36:48.471Z,28.25
2019-04-26T08:39:24.612Z,31.65
2019-04-26T08:41:53.389Z,27.20
2019-04-26T08:44:29.541Z,31.17
2019-04-26T08:47:00.919Z,23.57
2019-04-26T08:49:39.960Z,24.95
2019-04-26T08:54:43.349Z,29.10
2019-04-26T08:57:14.688Z,32.42
2019-04-26T08:59:49.102Z,40.88
2019-04-26T09:02:31.850Z,24.92
2019-04-26T09:05:21.387Z,28.57
2019-04-26T09:07:53.505Z,24.18
2019-04-26T09:10:26.088Z,28.75
2019-04-26T09:12:58.026Z,27.27
2019-04-26T09:15:47.415Z,24.60
2019-04-26T09:18:16.211Z,20.12
2019-04-26T09:20:45.067Z,29.48
2019-04-26T09:23:39.817Z,23.05
2019-04-26T09:26:03.694Z,22.80
2019-04-26T09:28:34.034Z,21.95
2019-04-26T09:31:07.119Z,25.05
2019-04-26T09:33:46.104Z,22.65
2019-04-26T09:38:42.811Z,23.38
2019-04-26T09:41:11.571Z,24.90
2019-04-26T09:43:44.718Z,19.60
2019-04-26T09:46:15.086Z,17.37
2019-04-26T09:48:51.215Z,16.65
2019-04-26T09:51:20.039Z,23.52
2019-04-26T09:53:48.770Z,23.47
2019-04-26T09:56:17.591Z,18.65
2019-04-26T09:58:46.374Z,21.85
2019-04-26T10:01:15.188Z,23.57
2019-04-26T10:03:43.933Z,19.85
2019-04-26T10:06:12.673Z,29.37
2019-04-26T10:08:43.366Z,20.57
2019-04-26T10:11:13.444Z,20.77
2019-04-26T10:13:52.427Z,18.25
2019-04-26T10:16:25.806Z,24.02
2019-04-26T10:18:58.301Z,27.82
2019-04-26T10:21:26.566Z,28.92
2019-04-26T10:23:55.316Z,18.30
2019-04-26T10:26:28.137Z,17.12
2019-04-26T10:28:54.512Z,23.00
2019-04-26T10:33:51.224Z,23.73
2019-04-26T10:38:47.831Z,17.37
2019-04-26T10:41:17.051Z,19.62
2019-04-26T10:43:45.790Z,22.80
2019-04-26T10:46:14.599Z,18.07
2019-04-26T10:51:14.979Z,13.30
2019-04-26T10:53:57.361Z,21.75
2019-04-26T10:56:30.713Z,25.82
2019-04-26T10:59:01.076Z,14.05
2019-04-26T11:01:30.158Z,15.93
2019-04-26T11:03:58.882Z,24.47
2019-04-26T11:08:57.115Z,18.60
2019-04-26T11:13:53.811Z,23.57
2019-04-26T11:18:50.824Z,30.05
2019-04-26T11:23:50.034Z,23.77
2019-04-26T11:26:19.061Z,24.35
2019-04-26T11:28:51.363Z,17.87
2019-04-26T11:31:18.204Z,25.15
2019-04-26T11:33:49.559Z,18.25
2019-04-26T11:36:17.296Z,27.77
2019-04-26T11:38:46.120Z,21.73
2019-04-26T11:41:14.849Z,25.62
2019-04-26T11:43:43.598Z,19.80
2019-04-26T11:46:12.376Z,17.87
2019-04-26T11:48:41.142Z,18.12
2019-04-26T11:51:09.878Z,17.20
2019-04-26T11:53:44.413Z,17.80
2019-04-26T11:56:09.047Z,18.60
2019-04-26T11:58:37.779Z,18.73
2019-04-26T12:01:08.161Z,19.62
2019-04-26T12:03:36.898Z,22.00
2019-04-26T12:06:23.466Z,23.07
2019-04-26T12:08:59.379Z,25.82
2019-04-26T12:11:34.150Z,20.15
2019-04-26T12:13:59.454Z,20.55
2019-04-26T12:16:29.076Z,23.07
2019-04-26T12:18:57.854Z,26.55
2019-04-26T12:21:30.178Z,25.17
2019-04-26T12:23:57.021Z,19.70
2019-04-26T12:26:25.719Z,28.98
2019-04-26T12:28:54.459Z,22.62
2019-04-26T12:31:23.218Z,24.37
2019-04-26T12:33:51.938Z,27.05
2019-04-26T12:36:20.752Z,18.75
2019-04-26T12:38:49.502Z,21.62
2019-04-26T12:41:25.240Z,23.00
2019-04-26T12:43:48.729Z,31.48
2019-04-26T12:48:54.703Z,27.02
2019-04-26T12:51:23.517Z,23.35
2019-04-26T12:53:52.279Z,24.95
2019-04-26T12:56:21.054Z,21.85
2019-04-26T12:58:50.234Z,38.73
2019-04-26T13:01:25.526Z,23.77
2019-04-26T13:04:10.980Z,21.23
2019-04-26T13:06:45.390Z,18.90
2019-04-26T13:09:21.737Z,24.15
2019-04-26T13:12:10.701Z,22.65
2019-04-26T13:14:45.475Z,28.55
2019-04-26T13:17:15.846Z,23.32
2019-04-26T13:19:44.646Z,20.75
2019-04-26T13:22:13.976Z,24.50
2019-04-26T13:24:42.999Z,22.27
2019-04-26T13:29:41.171Z,17.65
2019-04-26T13:32:09.950Z,27.13
2019-04-26T13:34:39.175Z,18.17
2019-04-26T13:37:07.958Z,17.00
2019-04-26T13:39:37.008Z,24.35
2019-04-26T13:44:54.886Z,38.20
2019-04-26T13:47:32.762Z,29.40
2019-04-26T13:50:04.520Z,18.92
2019-04-26T13:52:34.510Z,34.70
2019-04-26T13:55:05.321Z,25.50
2019-04-26T13:57:34.430Z,34.38
2019-04-26T14:02:32.903Z,29.57
2019-04-26T14:05:01.621Z,31.37
2019-04-26T14:07:30.460Z,35.38
2019-04-26T14:10:01.245Z,42.00
2019-04-26T14:12:30.890Z,36.00
2019-04-26T14:15:04.549Z,39.58
2019-04-26T14:17:34.011Z,30.10
2019-04-26T14:20:02.736Z,36.93
2019-04-26T14:22:37.049Z,29.10
2019-04-26T14:25:11.201Z,31.05
2019-04-26T14:27:52.784Z,28.90
2019-04-26T14:30:22.618Z,25.57
2019-04-26T14:32:53.114Z,32.88
2019-04-26T14:35:23.267Z,28.27
2019-04-26T14:37:52.048Z,35.35
2019-04-26T14:40:20.844Z,31.65
2019-04-26T14:43:05.458Z,30.32
2019-04-26T14:45:23.948Z,30.02
2019-04-26T14:47:52.017Z,25.82
2019-04-26T14:50:20.762Z,34.83
2019-04-26T14:52:49.573Z,29.60
2019-04-26T14:55:21.071Z,33.67
2019-04-26T14:57:51.387Z,30.43
2019-04-26T15:00:22.395Z,38.25
2019-04-26T15:02:56.019Z,32.93
2019-04-26T15:05:27.335Z,32.03
2019-04-26T15:07:56.057Z,33.23
2019-04-26T15:10:26.435Z,32.70
2019-04-26T15:13:11.442Z,21.97
2019-04-26T15:15:27.073Z,26.90
2019-04-26T15:17:59.492Z,29.77
2019-04-26T15:20:26.604Z,29.23
2019-04-26T15:22:55.430Z,32.05
2019-04-26T15:25:24.229Z,24.72
2019-04-26T15:27:52.989Z,26.87
2019-04-26T15:30:22.310Z,28.25
2019-04-26T15:32:52.916Z,25.25
2019-04-26T15:35:23.178Z,26.23
2019-04-26T15:37:53.477Z,29.07
2019-04-26T15:40:43.290Z,39.85
2019-04-26T15:43:14.920Z,24.98
2019-04-26T15:45:45.723Z,26.33
2019-04-26T15:48:32.646Z,44.40
2019-04-26T15:51:02.762Z,43.50
2019-04-26T15:53:33.071Z,38.85
2019-04-26T15:56:02.549Z,30.02
2019-04-26T15:58:31.482Z,28.92
2019-04-26T16:01:00.438Z,16.50
2019-04-26T16:03:29.177Z,16.90
2019-04-26T16:05:59.135Z,13.78
2019-04-26T16:08:28.292Z,15.55
2019-04-26T16:10:57.052Z,14.25
2019-04-26T16:13:25.831Z,17.42
2019-04-26T16:15:54.552Z,18.92
2019-04-26T16:18:23.349Z,20.23
2019-04-26T16:20:53.344Z,27.20
2019-04-26T16:23:22.391Z,18.80
2019-04-26T16:25:52.733Z,20.10
2019-04-26T16:28:30.858Z,20.48
2019-04-26T16:31:02.466Z,16.60
2019-04-26T16:33:36.090Z,25.62
2019-04-26T16:36:06.128Z,30.02
2019-04-26T16:38:36.128Z,19.23
2019-04-26T16:41:05.950Z,28.77
2019-04-26T16:43:40.250Z,36.15
2019-04-26T16:46:06.259Z,45.33
2019-04-26T16:48:35.594Z,23.07
2019-04-26T16:51:08.289Z,33.02
2019-04-26T16:53:46.386Z,24.15
2019-04-26T16:56:05.319Z,41.92
2019-04-26T16:58:38.170Z,28.05
2019-04-26T17:01:09.741Z,27.40
2019-04-26T17:03:38.166Z,24.67
2019-04-26T17:06:10.845Z,29.65
2019-04-26T17:08:42.870Z,27.85
2019-04-26T17:11:06.271Z,22.15
2019-04-26T17:13:42.843Z,27.55
2019-04-26T17:16:05.497Z,25.32
2019-04-26T17:18:34.248Z,48.00
2019-04-26T17:21:03.041Z,27.00
2019-04-26T17:23:33.475Z,52.62
2019-04-26T17:26:15.784Z,31.95
2019-04-26T17:28:44.589Z,32.93
2019-04-26T17:31:13.399Z,30.45
2019-04-26T17:33:42.216Z,39.90
2019-04-26T17:36:11.528Z,33.23
2019-04-26T17:38:42.072Z,37.28
2019-04-26T17:41:13.437Z,30.55
2019-04-26T17:43:46.952Z,43.02
2019-04-26T17:46:14.546Z,48.87
2019-04-26T17:48:44.765Z,28.42
2019-04-26T17:51:18.826Z,35.38
2019-04-26T17:53:44.070Z,25.12
2019-04-26T17:56:13.592Z,24.85
2019-04-26T18:01:12.180Z,31.00
2019-04-26T18:03:50.875Z,26.25
2019-04-26T18:06:14.110Z,28.83
2019-04-26T18:08:51.918Z,23.70
2019-04-26T18:11:19.709Z,29.35
2019-04-26T18:13:47.226Z,32.38
2019-04-26T18:16:17.787Z,30.55
2019-04-26T18:18:53.591Z,34.92
2019-04-26T18:21:34.418Z,25.92
2019-04-26T18:24:03.235Z,23.52
2019-04-26T18:26:32.784Z,27.62
2019-04-26T18:29:03.711Z,24.50
2019-04-26T18:31:33.679Z,30.88
2019-04-26T18:34:04.036Z,27.25
2019-04-26T18:36:33.294Z,28.02
2019-04-26T18:39:03.887Z,28.62
2019-04-26T18:41:33.920Z,21.00
2019-04-26T18:44:03.299Z,21.15
2019-04-26T18:46:50.013Z,23.10
2019-04-26T18:49:32.993Z,24.00
2019-04-26T18:52:03.606Z,29.45
2019-04-26T18:54:34.614Z,25.20
2019-04-26T18:57:03.600Z,28.62
2019-04-26T18:59:34.023Z,22.50
2019-04-26T19:02:03.969Z,23.52
2019-04-26T19:04:33.611Z,23.52
2019-04-26T19:07:02.543Z,32.83
2019-04-26T19:09:36.859Z,25.82
2019-04-26T19:12:01.813Z,20.35
2019-04-26T19:14:49.884Z,21.12
2019-04-26T19:17:35.947Z,23.25
2019-04-26T19:20:20.138Z,29.55
2019-04-26T19:22:53.212Z,26.40
2019-04-26T19:25:23.314Z,28.32
2019-04-26T19:27:53.881Z,24.75
2019-04-26T19:30:22.082Z,17.73
2019-04-26T19:32:53.586Z,22.95
2019-04-26T19:35:21.911Z,23.55
2019-04-26T19:37:51.752Z,23.98
2019-04-26T19:40:20.703Z,23.85
2019-04-26T19:42:53.680Z,38.95
2019-04-26T19:45:24.177Z,29.85
2019-04-26T19:47:54.605Z,21.70
2019-04-26T19:50:42.003Z,31.45
2019-04-26T19:53:10.342Z,24.75
2019-04-26T19:55:57.383Z,31.10
2019-04-26T19:58:32.128Z,24.95
2019-04-26T20:01:01.982Z,30.00
2019-04-26T20:03:32.081Z,23.40
2019-04-26T20:06:01.808Z,29.30
2019-04-26T20:08:35.278Z,23.85
2019-04-26T20:11:01.405Z,33.53
2019-04-26T20:13:31.723Z,29.02
2019-04-26T20:16:02.736Z,31.60
2019-04-26T20:18:32.798Z,38.53
2019-04-26T20:21:02.613Z,31.82
2019-04-26T20:23:33.840Z,25.95
2019-04-26T20:26:07.235Z,31.15
2019-04-26T20:28:35.902Z,28.42
2019-04-26T20:31:13.610Z,25.27
2019-04-26T20:33:42.522Z,26.02
2019-04-26T20:36:11.312Z,29.02
2019-04-26T20:38:43.775Z,23.85
2019-04-26T20:41:13.277Z,32.30
2019-04-26T20:43:46.211Z,23.05
2019-04-26T20:46:15.200Z,20.57
2019-04-26T20:48:42.628Z,24.75
2019-04-26T20:51:12.115Z,21.30
2019-04-26T20:53:43.143Z,29.87
2019-04-26T20:56:18.059Z,20.45
2019-04-26T20:58:43.208Z,35.70
2019-04-26T21:01:14.058Z,22.42
2019-04-26T21:03:46.007Z,27.15
2019-04-26T21:06:13.687Z,23.12
2019-04-26T21:08:42.579Z,26.75
2019-04-26T21:11:13.566Z,25.65
2019-04-26T21:13:41.905Z,25.90
2019-04-26T21:16:15.003Z,30.95
2019-04-26T21:18:44.068Z,25.88
2019-04-26T21:21:12.057Z,27.13
2019-04-26T21:23:42.214Z,28.80
2019-04-26T21:26:16.665Z,27.50
2019-04-26T21:28:47.088Z,21.45
2019-04-26T21:31:20.288Z,27.93
2019-04-26T21:33:50.670Z,26.50
2019-04-26T21:36:22.815Z,30.05
2019-04-26T21:38:59.342Z,23.47
2019-04-26T21:41:28.196Z,31.55
2019-04-26T21:43:56.930Z,25.52
2019-04-26T21:46:27.502Z,23.95
2019-04-26T21:48:56.122Z,30.02
2019-04-26T21:51:24.854Z,27.37
2019-04-26T21:53:53.647Z,24.60
2019-04-26T21:56:23.533Z,40.63
2019-04-26T21:58:53.338Z,35.35
2019-04-26T22:01:23.445Z,23.35
2019-04-26T22:03:55.535Z,28.77
2019-04-26T22:06:26.891Z,25.32
2019-04-26T22:09:13.560Z,26.60
2019-04-26T22:11:44.248Z,22.80
2019-04-26T22:14:21.609Z,24.87
2019-04-26T22:16:57.589Z,24.10
2019-04-26T22:19:36.763Z,23.27
2019-04-26T22:22:09.826Z,25.85
2019-04-26T22:24:40.197Z,26.48
2019-04-26T22:27:08.892Z,25.02
2019-04-26T22:29:37.638Z,26.87
2019-04-26T22:32:06.435Z,31.87
2019-04-26T22:34:37.383Z,28.80
2019-04-26T22:37:11.173Z,34.95
2019-04-26T22:39:39.757Z,24.57
2019-04-26T22:42:06.676Z,34.78
2019-04-26T22:44:53.965Z,30.57
2019-04-26T22:47:24.383Z,22.30
2019-04-26T22:49:53.112Z,33.95
2019-04-26T22:52:23.082Z,21.82
2019-04-26T22:54:53.735Z,24.32
2019-04-26T22:57:23.216Z,26.57
2019-04-26T22:59:53.518Z,21.57
2019-04-26T23:02:26.985Z,35.28
2019-04-26T23:04:56.022Z,28.47
2019-04-26T23:07:26.138Z,32.50
2019-04-26T23:09:55.532Z,31.57
2019-04-26T23:12:35.174Z,28.15
2019-04-26T23:18:08.193Z,27.93
2019-04-26T23:20:39.677Z,27.52
2019-04-26T23:23:08.764Z,31.12
2019-04-26T23:25:37.584Z,32.20
2019-04-26T23:28:06.307Z,35.38
2019-04-26T23:30:35.118Z,32.03
2019-04-26T23:33:04.105Z,37.40
2019-04-26T23:35:37.567Z,25.97
2019-04-26T23:38:05.201Z,23.02
2019-04-26T23:40:33.831Z,33.30
2019-04-26T23:43:02.955Z,34.45
2019-04-26T23:45:33.358Z,29.82
2019-04-26T23:48:03.512Z,24.12
2019-04-26T23:50:34.082Z,24.23
2019-04-26T23:53:03.119Z,23.62
2019-04-26T23:55:33.709Z,25.82
2019-04-26T23:58:05.793Z,25.52
